sensor_id;sensor_type;location;lat;lon;timestamp;pressure;altitude;pressure_sealevel;temperature;humidity
60920;BME280;59039;52.108;19.942;2023-01-30T00:01:49;100401.45;;;1.05;83.85
60920;BME280;59039;52.108;19.942;2023-01-30T00:04:14;100395.02;;;1.05;83.81
60920;BME280;59039;52.108;19.942;2023-01-30T00:06:43;100387.36;;;1.05;83.82
60920;BME280;59039;52.108;19.942;2023-01-30T00:09:12;100383.08;;;1.05;83.77
60920;BME280;59039;52.108;19.942;2023-01-30T00:11:37;100372.64;;;1.07;83.65
60920;BME280;59039;52.108;19.942;2023-01-30T00:14:03;100363.30;;;1.04;83.68
60920;BME280;59039;52.108;19.942;2023-01-30T00:16:28;100357.77;;;1.04;83.62
60920;BME280;59039;52.108;19.942;2023-01-30T00:18:53;100346.89;;;1.04;83.69
60920;BME280;59039;52.108;19.942;2023-01-30T00:21:26;100343.09;;;1.05;83.65
60920;BME280;59039;52.108;19.942;2023-01-30T00:23:56;100338.29;;;1.05;83.58
60920;BME280;59039;52.108;19.942;2023-01-30T00:26:22;100338.61;;;1.03;83.46
60920;BME280;59039;52.108;19.942;2023-01-30T00:28:57;100335.10;;;1.01;83.52
60920;BME280;59039;52.108;19.942;2023-01-30T00:31:46;100332.67;;;1.03;83.51
60920;BME280;59039;52.108;19.942;2023-01-30T00:34:11;100328.56;;;1.03;83.41
60920;BME280;59039;52.108;19.942;2023-01-30T00:36:47;100318.39;;;1.04;83.37
60920;BME280;59039;52.108;19.942;2023-01-30T00:39:38;100303.19;;;1.04;83.37
60920;BME280;59039;52.108;19.942;2023-01-30T00:42:08;100296.92;;;1.05;83.36
60920;BME280;59039;52.108;19.942;2023-01-30T00:45:03;100289.61;;;1.04;83.39
60920;BME280;59039;52.108;19.942;2023-01-30T00:47:28;100284.77;;;1.05;83.44
60920;BME280;59039;52.108;19.942;2023-01-30T00:50:10;100283.73;;;1.04;83.33
60920;BME280;59039;52.108;19.942;2023-01-30T00:55:28;100267.97;;;1.05;83.37
60920;BME280;59039;52.108;19.942;2023-01-30T00:58:19;100256.23;;;1.05;83.35
60920;BME280;59039;52.108;19.942;2023-01-30T01:00:52;100251.27;;;1.04;83.36
60920;BME280;59039;52.108;19.942;2023-01-30T01:03:21;100241.20;;;1.03;83.32
60920;BME280;59039;52.108;19.942;2023-01-30T01:05:47;100237.27;;;1.03;83.24
60920;BME280;59039;52.108;19.942;2023-01-30T01:08:15;100231.31;;;1.01;83.14
60920;BME280;59039;52.108;19.942;2023-01-30T01:10:41;100225.25;;;1.01;83.13
60920;BME280;59039;52.108;19.942;2023-01-30T01:13:11;100218.23;;;1.02;83.02
60920;BME280;59039;52.108;19.942;2023-01-30T01:15:46;100203.23;;;1.02;83.08
60920;BME280;59039;52.108;19.942;2023-01-30T01:18:14;100193.40;;;1.02;83.04
60920;BME280;59039;52.108;19.942;2023-01-30T01:20:39;100190.91;;;1.02;83.02
60920;BME280;59039;52.108;19.942;2023-01-30T01:23:08;100197.97;;;1.03;83.08
60920;BME280;59039;52.108;19.942;2023-01-30T01:25:34;100199.96;;;1.03;83.01
60920;BME280;59039;52.108;19.942;2023-01-30T01:28:02;100197.20;;;1.01;82.91
60920;BME280;59039;52.108;19.942;2023-01-30T01:30:36;100198.02;;;1.00;82.82
60920;BME280;59039;52.108;19.942;2023-01-30T01:33:08;100198.01;;;1.00;82.80
60920;BME280;59039;52.108;19.942;2023-01-30T01:35:34;100192.59;;;0.98;82.75
60920;BME280;59039;52.108;19.942;2023-01-30T01:38:04;100188.06;;;0.97;82.57
60920;BME280;59039;52.108;19.942;2023-01-30T01:40:38;100180.29;;;0.95;82.56
60920;BME280;59039;52.108;19.942;2023-01-30T01:43:19;100180.84;;;0.95;82.57
60920;BME280;59039;52.108;19.942;2023-01-30T01:45:53;100177.39;;;0.93;82.44
60920;BME280;59039;52.108;19.942;2023-01-30T01:48:27;100169.51;;;0.91;82.37
60920;BME280;59039;52.108;19.942;2023-01-30T01:51:22;100160.23;;;0.88;82.29
60920;BME280;59039;52.108;19.942;2023-01-30T01:54:05;100158.83;;;0.88;82.32
60920;BME280;59039;52.108;19.942;2023-01-30T01:56:37;100151.04;;;0.87;82.28
60920;BME280;59039;52.108;19.942;2023-01-30T01:59:09;100141.78;;;0.87;82.26
60920;BME280;59039;52.108;19.942;2023-01-30T02:01:38;100135.55;;;0.87;82.08
60920;BME280;59039;52.108;19.942;2023-01-30T02:04:06;100127.00;;;0.87;82.02
60920;BME280;59039;52.108;19.942;2023-01-30T02:06:55;100127.38;;;0.86;82.07
60920;BME280;59039;52.108;19.942;2023-01-30T02:09:40;100129.88;;;0.86;81.96
60920;BME280;59039;52.108;19.942;2023-01-30T02:12:34;100122.98;;;0.85;81.95
60920;BME280;59039;52.108;19.942;2023-01-30T02:15:01;100119.20;;;0.83;81.95
60920;BME280;59039;52.108;19.942;2023-01-30T02:20:25;100104.59;;;0.83;81.89
60920;BME280;59039;52.108;19.942;2023-01-30T02:29:54;100094.55;;;0.81;81.56
60920;BME280;59039;52.108;19.942;2023-01-30T02:33:00;100084.23;;;0.81;81.63
60920;BME280;59039;52.108;19.942;2023-01-30T02:36:02;100082.65;;;0.77;81.44
60920;BME280;59039;52.108;19.942;2023-01-30T02:42:02;100071.83;;;0.74;81.15
60920;BME280;59039;52.108;19.942;2023-01-30T02:54:01;100035.08;;;0.66;81.20
60920;BME280;59039;52.108;19.942;2023-01-30T02:56:48;100033.98;;;0.66;81.09
60920;BME280;59039;52.108;19.942;2023-01-30T03:05:22;100011.16;;;0.67;81.01
60920;BME280;59039;52.108;19.942;2023-01-30T03:08:16;100000.58;;;0.67;80.91
60920;BME280;59039;52.108;19.942;2023-01-30T03:11:15;99996.21;;;0.69;80.69
60920;BME280;59039;52.108;19.942;2023-01-30T03:16:40;99969.84;;;0.71;80.82
60920;BME280;59039;52.108;19.942;2023-01-30T03:19:18;99962.04;;;0.70;80.93
60920;BME280;59039;52.108;19.942;2023-01-30T03:21:44;99954.55;;;0.70;80.77
60920;BME280;59039;52.108;19.942;2023-01-30T03:24:13;99953.80;;;0.71;80.49
60920;BME280;59039;52.108;19.942;2023-01-30T03:30:01;99945.14;;;0.70;80.69
60920;BME280;59039;52.108;19.942;2023-01-30T03:32:31;99940.44;;;0.68;80.74
60920;BME280;59039;52.108;19.942;2023-01-30T03:34:57;99932.48;;;0.67;80.64
60920;BME280;59039;52.108;19.942;2023-01-30T03:37:22;99922.52;;;0.67;80.71
60920;BME280;59039;52.108;19.942;2023-01-30T03:40:08;99917.75;;;0.66;80.58
60920;BME280;59039;52.108;19.942;2023-01-30T03:42:37;99909.04;;;0.66;80.53
60920;BME280;59039;52.108;19.942;2023-01-30T03:45:12;99902.59;;;0.66;80.63
60920;BME280;59039;52.108;19.942;2023-01-30T03:50:26;99887.94;;;0.64;80.72
60920;BME280;59039;52.108;19.942;2023-01-30T03:55:59;99863.41;;;0.63;80.58
60920;BME280;59039;52.108;19.942;2023-01-30T03:58:45;99853.47;;;0.62;80.68
60920;BME280;59039;52.108;19.942;2023-01-30T04:01:11;99848.83;;;0.60;80.65
60920;BME280;59039;52.108;19.942;2023-01-30T04:06:15;99839.90;;;0.60;80.62
60920;BME280;59039;52.108;19.942;2023-01-30T04:08:51;99831.83;;;0.60;80.55
60920;BME280;59039;52.108;19.942;2023-01-30T04:11:41;99824.35;;;0.60;80.61
60920;BME280;59039;52.108;19.942;2023-01-30T04:17:10;99823.52;;;0.59;80.71
60920;BME280;59039;52.108;19.942;2023-01-30T04:19:41;99825.27;;;0.57;80.63
60920;BME280;59039;52.108;19.942;2023-01-30T04:22:15;99817.83;;;0.57;80.60
60920;BME280;59039;52.108;19.942;2023-01-30T04:24:52;99817.77;;;0.58;80.69
60920;BME280;59039;52.108;19.942;2023-01-30T04:27:18;99810.31;;;0.57;80.49
60920;BME280;59039;52.108;19.942;2023-01-30T04:29:43;99814.59;;;0.57;80.49
60920;BME280;59039;52.108;19.942;2023-01-30T04:32:16;99805.77;;;0.56;80.67
60920;BME280;59039;52.108;19.942;2023-01-30T04:34:42;99816.06;;;0.54;80.59
60920;BME280;59039;52.108;19.942;2023-01-30T04:37:11;99810.13;;;0.52;80.66
60920;BME280;59039;52.108;19.942;2023-01-30T04:39:57;99802.92;;;0.53;80.57
60920;BME280;59039;52.108;19.942;2023-01-30T04:42:27;99797.45;;;0.52;80.56
60920;BME280;59039;52.108;19.942;2023-01-30T04:47:41;99783.20;;;0.47;80.65
60920;BME280;59039;52.108;19.942;2023-01-30T04:50:07;99781.23;;;0.45;80.62
60920;BME280;59039;52.108;19.942;2023-01-30T04:52:36;99774.22;;;0.43;80.64
60920;BME280;59039;52.108;19.942;2023-01-30T04:55:07;99768.20;;;0.43;80.59
60920;BME280;59039;52.108;19.942;2023-01-30T04:57:33;99755.38;;;0.42;80.73
60920;BME280;59039;52.108;19.942;2023-01-30T05:00:00;99750.42;;;0.42;80.73
60920;BME280;59039;52.108;19.942;2023-01-30T05:02:29;99750.81;;;0.41;80.69
60920;BME280;59039;52.108;19.942;2023-01-30T05:05:19;99739.60;;;0.41;80.65
60920;BME280;59039;52.108;19.942;2023-01-30T05:08:13;99726.95;;;0.41;80.58
60920;BME280;59039;52.108;19.942;2023-01-30T05:11:20;99715.39;;;0.40;80.65
60920;BME280;59039;52.108;19.942;2023-01-30T05:16:56;99703.52;;;0.40;80.63
60920;BME280;59039;52.108;19.942;2023-01-30T05:19:26;99702.20;;;0.38;80.59
60920;BME280;59039;52.108;19.942;2023-01-30T05:21:55;99695.09;;;0.38;80.62
60920;BME280;59039;52.108;19.942;2023-01-30T05:24:23;99689.06;;;0.37;80.44
60920;BME280;59039;52.108;19.942;2023-01-30T05:26:48;99676.95;;;0.37;80.33
60920;BME280;59039;52.108;19.942;2023-01-30T05:29:14;99673.88;;;0.35;80.29
60920;BME280;59039;52.108;19.942;2023-01-30T05:31:39;99672.61;;;0.33;80.15
60920;BME280;59039;52.108;19.942;2023-01-30T05:34:10;99669.34;;;0.31;79.99
60920;BME280;59039;52.108;19.942;2023-01-30T05:36:35;99670.63;;;0.31;80.07
60920;BME280;59039;52.108;19.942;2023-01-30T05:39:04;99658.15;;;0.29;79.80
60920;BME280;59039;52.108;19.942;2023-01-30T05:41:32;99658.83;;;0.26;79.86
60920;BME280;59039;52.108;19.942;2023-01-30T05:43:57;99648.21;;;0.26;79.76
60920;BME280;59039;52.108;19.942;2023-01-30T05:46:25;99646.14;;;0.25;79.77
60920;BME280;59039;52.108;19.942;2023-01-30T05:48:51;99647.63;;;0.24;79.64
60920;BME280;59039;52.108;19.942;2023-01-30T05:51:21;99650.23;;;0.22;79.55
60920;BME280;59039;52.108;19.942;2023-01-30T05:53:49;99645.20;;;0.20;79.57
60920;BME280;59039;52.108;19.942;2023-01-30T05:56:18;99650.48;;;0.18;79.58
60920;BME280;59039;52.108;19.942;2023-01-30T05:58:50;99650.63;;;0.16;79.45
60920;BME280;59039;52.108;19.942;2023-01-30T06:01:56;99646.73;;;0.16;79.52
60920;BME280;59039;52.108;19.942;2023-01-30T06:04:21;99648.91;;;0.15;79.55
60920;BME280;59039;52.108;19.942;2023-01-30T06:06:48;99653.00;;;0.15;79.66
60920;BME280;59039;52.108;19.942;2023-01-30T06:09:13;99643.67;;;0.16;79.58
60920;BME280;59039;52.108;19.942;2023-01-30T06:11:42;99644.51;;;0.17;79.38
60920;BME280;59039;52.108;19.942;2023-01-30T06:14:07;99640.98;;;0.19;79.52
60920;BME280;59039;52.108;19.942;2023-01-30T06:16:45;99631.21;;;0.22;79.51
60920;BME280;59039;52.108;19.942;2023-01-30T06:19:19;99630.41;;;0.23;79.59
60920;BME280;59039;52.108;19.942;2023-01-30T06:22:08;99619.73;;;0.23;79.30
60920;BME280;59039;52.108;19.942;2023-01-30T06:24:36;99623.42;;;0.24;79.03
60920;BME280;59039;52.108;19.942;2023-01-30T06:27:10;99615.08;;;0.26;79.08
60920;BME280;59039;52.108;19.942;2023-01-30T06:29:46;99611.36;;;0.27;79.29
60920;BME280;59039;52.108;19.942;2023-01-30T06:32:14;99602.21;;;0.28;79.09
60920;BME280;59039;52.108;19.942;2023-01-30T06:34:44;99602.30;;;0.30;79.30
60920;BME280;59039;52.108;19.942;2023-01-30T06:37:10;99609.37;;;0.30;79.28
60920;BME280;59039;52.108;19.942;2023-01-30T06:39:56;99618.41;;;0.31;79.41
60920;BME280;59039;52.108;19.942;2023-01-30T06:48:06;99596.23;;;0.27;80.05
60920;BME280;59039;52.108;19.942;2023-01-30T06:50:34;99592.55;;;0.24;80.35
60920;BME280;59039;52.108;19.942;2023-01-30T06:53:07;99591.80;;;0.22;80.33
60920;BME280;59039;52.108;19.942;2023-01-30T06:55:56;99595.55;;;0.19;80.49
60920;BME280;59039;52.108;19.942;2023-01-30T06:58:24;99589.66;;;0.17;80.46
60920;BME280;59039;52.108;19.942;2023-01-30T07:01:10;99585.48;;;0.13;80.53
60920;BME280;59039;52.108;19.942;2023-01-30T07:03:35;99576.88;;;0.09;80.70
60920;BME280;59039;52.108;19.942;2023-01-30T07:09:06;99557.73;;;0.05;81.20
60920;BME280;59039;52.108;19.942;2023-01-30T07:11:41;99544.54;;;0.05;81.09
60920;BME280;59039;52.108;19.942;2023-01-30T07:14:07;99536.94;;;0.05;80.93
60920;BME280;59039;52.108;19.942;2023-01-30T07:19:11;99527.16;;;0.02;80.94
60920;BME280;59039;52.108;19.942;2023-01-30T07:21:39;99516.42;;;0.00;80.90
60920;BME280;59039;52.108;19.942;2023-01-30T07:24:05;99512.48;;;-0.03;81.04
60920;BME280;59039;52.108;19.942;2023-01-30T07:26:31;99514.73;;;-0.04;81.20
60920;BME280;59039;52.108;19.942;2023-01-30T07:29:10;99507.06;;;-0.04;80.94
60920;BME280;59039;52.108;19.942;2023-01-30T07:31:39;99504.12;;;-0.07;81.02
60920;BME280;59039;52.108;19.942;2023-01-30T07:34:04;99503.84;;;-0.11;81.06
60920;BME280;59039;52.108;19.942;2023-01-30T07:36:32;99498.80;;;-0.12;81.21
60920;BME280;59039;52.108;19.942;2023-01-30T07:38:58;99501.12;;;-0.13;81.06
60920;BME280;59039;52.108;19.942;2023-01-30T07:42:05;99498.90;;;-0.14;81.16
60920;BME280;59039;52.108;19.942;2023-01-30T07:44:32;99493.82;;;-0.15;81.31
60920;BME280;59039;52.108;19.942;2023-01-30T07:46:58;99492.07;;;-0.15;81.07
60920;BME280;59039;52.108;19.942;2023-01-30T07:49:26;99485.02;;;-0.16;81.23
60920;BME280;59039;52.108;19.942;2023-01-30T07:51:51;99490.34;;;-0.16;81.15
60920;BME280;59039;52.108;19.942;2023-01-30T07:54:38;99490.80;;;-0.18;81.35
60920;BME280;59039;52.108;19.942;2023-01-30T07:57:05;99491.04;;;-0.19;81.52
60920;BME280;59039;52.108;19.942;2023-01-30T07:59:31;99488.55;;;-0.19;81.50
60920;BME280;59039;52.108;19.942;2023-01-30T08:02:16;99492.77;;;-0.18;81.54
60920;BME280;59039;52.108;19.942;2023-01-30T08:04:56;99489.05;;;-0.18;81.76
60920;BME280;59039;52.108;19.942;2023-01-30T08:07:34;99486.77;;;-0.16;81.83
60920;BME280;59039;52.108;19.942;2023-01-30T08:10:00;99483.20;;;-0.16;81.70
60920;BME280;59039;52.108;19.942;2023-01-30T08:12:47;99488.86;;;-0.15;81.74
60920;BME280;59039;52.108;19.942;2023-01-30T08:15:16;99486.14;;;-0.17;82.11
60920;BME280;59039;52.108;19.942;2023-01-30T08:17:42;99477.50;;;-0.16;82.00
60920;BME280;59039;52.108;19.942;2023-01-30T08:20:30;99483.02;;;-0.16;81.91
60920;BME280;59039;52.108;19.942;2023-01-30T08:23:08;99482.12;;;-0.18;82.66
60920;BME280;59039;52.108;19.942;2023-01-30T08:28:23;99466.17;;;-0.17;82.84
60920;BME280;59039;52.108;19.942;2023-01-30T08:30:51;99454.90;;;-0.16;82.69
60920;BME280;59039;52.108;19.942;2023-01-30T08:33:16;99442.45;;;-0.16;82.23
60920;BME280;59039;52.108;19.942;2023-01-30T08:35:45;99429.86;;;-0.17;82.41
60920;BME280;59039;52.108;19.942;2023-01-30T08:38:22;99429.98;;;-0.16;82.37
60920;BME280;59039;52.108;19.942;2023-01-30T08:40:49;99425.48;;;-0.18;82.57
60920;BME280;59039;52.108;19.942;2023-01-30T08:43:26;99422.13;;;-0.19;82.80
60920;BME280;59039;52.108;19.942;2023-01-30T08:46:12;99417.27;;;-0.18;82.50
60920;BME280;59039;52.108;19.942;2023-01-30T08:48:40;99411.95;;;-0.18;82.95
60920;BME280;59039;52.108;19.942;2023-01-30T08:51:21;99407.41;;;-0.17;82.62
60920;BME280;59039;52.108;19.942;2023-01-30T08:53:51;99402.10;;;-0.17;82.62
60920;BME280;59039;52.108;19.942;2023-01-30T08:56:19;99402.67;;;-0.18;82.70
60920;BME280;59039;52.108;19.942;2023-01-30T08:58:57;99400.95;;;-0.16;82.80
60920;BME280;59039;52.108;19.942;2023-01-30T09:01:43;99397.59;;;-0.14;83.13
60920;BME280;59039;52.108;19.942;2023-01-30T09:06:59;99397.45;;;-0.12;82.63
60920;BME280;59039;52.108;19.942;2023-01-30T09:09:24;99393.48;;;-0.11;82.83
60920;BME280;59039;52.108;19.942;2023-01-30T09:11:55;99393.67;;;-0.09;82.84
60920;BME280;59039;52.108;19.942;2023-01-30T09:14:54;99393.20;;;-0.08;82.95
60920;BME280;59039;52.108;19.942;2023-01-30T09:17:28;99389.61;;;-0.05;82.82
60920;BME280;59039;52.108;19.942;2023-01-30T09:19:59;99385.83;;;-0.04;83.09
60920;BME280;59039;52.108;19.942;2023-01-30T09:22:24;99380.90;;;-0.03;82.84
60920;BME280;59039;52.108;19.942;2023-01-30T09:24:50;99380.64;;;-0.02;82.84
60920;BME280;59039;52.108;19.942;2023-01-30T09:27:18;99371.28;;;0.00;82.90
60920;BME280;59039;52.108;19.942;2023-01-30T09:29:54;99367.41;;;0.02;82.94
60920;BME280;59039;52.108;19.942;2023-01-30T09:32:29;99360.70;;;0.04;82.96
60920;BME280;59039;52.108;19.942;2023-01-30T09:34:54;99354.55;;;0.05;82.95
60920;BME280;59039;52.108;19.942;2023-01-30T09:37:19;99355.85;;;0.07;82.99
60920;BME280;59039;52.108;19.942;2023-01-30T09:39:48;99351.44;;;0.08;83.02
60920;BME280;59039;52.108;19.942;2023-01-30T09:42:44;99346.47;;;0.10;83.04
60920;BME280;59039;52.108;19.942;2023-01-30T09:45:41;99341.09;;;0.13;83.06
60920;BME280;59039;52.108;19.942;2023-01-30T09:48:51;99330.52;;;0.14;83.13
60920;BME280;59039;52.108;19.942;2023-01-30T09:54:30;99324.27;;;0.16;83.59
60920;BME280;59039;52.108;19.942;2023-01-30T09:57:21;99315.98;;;0.18;83.19
60920;BME280;59039;52.108;19.942;2023-01-30T10:00:14;99312.38;;;0.18;83.49
60920;BME280;59039;52.108;19.942;2023-01-30T10:02:52;99307.97;;;0.20;83.63
60920;BME280;59039;52.108;19.942;2023-01-30T10:05:39;99301.52;;;0.21;83.80
60920;BME280;59039;52.108;19.942;2023-01-30T10:11:47;99292.84;;;0.25;83.85
60920;BME280;59039;52.108;19.942;2023-01-30T10:17:29;99293.63;;;0.28;84.18
60920;BME280;59039;52.108;19.942;2023-01-30T10:28:54;99277.18;;;0.36;84.65
60920;BME280;59039;52.108;19.942;2023-01-30T10:31:18;99275.99;;;0.37;85.09
60920;BME280;59039;52.108;19.942;2023-01-30T10:34:28;99274.92;;;0.40;84.68
60920;BME280;59039;52.108;19.942;2023-01-30T10:40:43;99262.75;;;0.46;84.27
60920;BME280;59039;52.108;19.942;2023-01-30T10:48:47;99248.23;;;0.49;84.77
60920;BME280;59039;52.108;19.942;2023-01-30T10:54:30;99241.23;;;0.52;84.99
60920;BME280;59039;52.108;19.942;2023-01-30T10:57:13;99236.20;;;0.54;84.64
60920;BME280;59039;52.108;19.942;2023-01-30T11:02:29;99233.42;;;0.58;84.72
60920;BME280;59039;52.108;19.942;2023-01-30T11:05:03;99233.09;;;0.60;84.90
60920;BME280;59039;52.108;19.942;2023-01-30T11:07:34;99233.19;;;0.63;85.12
60920;BME280;59039;52.108;19.942;2023-01-30T11:09:59;99230.10;;;0.66;85.28
60920;BME280;59039;52.108;19.942;2023-01-30T11:12:39;99222.73;;;0.69;85.06
60920;BME280;59039;52.108;19.942;2023-01-30T11:15:09;99218.40;;;0.70;85.20
60920;BME280;59039;52.108;19.942;2023-01-30T11:17:41;99211.19;;;0.71;85.08
60920;BME280;59039;52.108;19.942;2023-01-30T11:20:14;99207.48;;;0.73;84.93
60920;BME280;59039;52.108;19.942;2023-01-30T11:23:03;99208.06;;;0.72;84.98
60920;BME280;59039;52.108;19.942;2023-01-30T11:25:29;99211.44;;;0.72;85.13
60920;BME280;59039;52.108;19.942;2023-01-30T11:28:04;99201.47;;;0.74;84.95
60920;BME280;59039;52.108;19.942;2023-01-30T11:30:53;99203.91;;;0.75;85.31
60920;BME280;59039;52.108;19.942;2023-01-30T11:33:23;99194.14;;;0.77;85.21
60920;BME280;59039;52.108;19.942;2023-01-30T11:35:58;99183.58;;;0.77;85.23
60920;BME280;59039;52.108;19.942;2023-01-30T11:38:35;99181.66;;;0.79;85.21
60920;BME280;59039;52.108;19.942;2023-01-30T11:41:05;99170.06;;;0.81;85.08
60920;BME280;59039;52.108;19.942;2023-01-30T11:43:33;99169.31;;;0.82;85.13
60920;BME280;59039;52.108;19.942;2023-01-30T11:45:59;99166.34;;;0.83;85.29
60920;BME280;59039;52.108;19.942;2023-01-30T11:48:31;99163.70;;;0.85;85.35
60920;BME280;59039;52.108;19.942;2023-01-30T11:50:59;99164.56;;;0.88;85.28
60920;BME280;59039;52.108;19.942;2023-01-30T11:53:42;99157.97;;;0.90;85.59
60920;BME280;59039;52.108;19.942;2023-01-30T11:56:37;99153.73;;;0.92;85.43
60920;BME280;59039;52.108;19.942;2023-01-30T12:01:38;99160.94;;;0.95;85.35
60920;BME280;59039;52.108;19.942;2023-01-30T12:04:06;99156.45;;;0.96;85.48
60920;BME280;59039;52.108;19.942;2023-01-30T12:06:35;99151.11;;;0.97;85.57
60920;BME280;59039;52.108;19.942;2023-01-30T12:09:05;99150.92;;;0.99;85.63
60920;BME280;59039;52.108;19.942;2023-01-30T12:11:57;99149.47;;;1.02;85.50
60920;BME280;59039;52.108;19.942;2023-01-30T12:15:00;99155.06;;;1.03;85.57
60920;BME280;59039;52.108;19.942;2023-01-30T12:17:27;99156.15;;;1.06;85.50
60920;BME280;59039;52.108;19.942;2023-01-30T12:20:04;99155.69;;;1.07;85.47
60920;BME280;59039;52.108;19.942;2023-01-30T12:26:09;99147.66;;;1.09;85.58
60920;BME280;59039;52.108;19.942;2023-01-30T12:31:35;99143.70;;;1.12;85.78
60920;BME280;59039;52.108;19.942;2023-01-30T12:34:03;99143.96;;;1.15;85.62
60920;BME280;59039;52.108;19.942;2023-01-30T12:39:57;99148.40;;;1.19;85.44
60920;BME280;59039;52.108;19.942;2023-01-30T12:45:32;99150.10;;;1.23;85.46
60920;BME280;59039;52.108;19.942;2023-01-30T12:53:43;99146.35;;;1.25;85.53
60920;BME280;59039;52.108;19.942;2023-01-30T12:56:37;99150.38;;;1.26;85.62
60920;BME280;59039;52.108;19.942;2023-01-30T12:59:15;99152.09;;;1.27;85.95
60920;BME280;59039;52.108;19.942;2023-01-30T13:02:02;99154.17;;;1.30;85.73
60920;BME280;59039;52.108;19.942;2023-01-30T13:04:42;99156.68;;;1.32;85.49
60920;BME280;59039;52.108;19.942;2023-01-30T13:10:28;99149.33;;;1.34;85.78
60920;BME280;59039;52.108;19.942;2023-01-30T13:15:48;99158.42;;;1.39;85.70
60920;BME280;59039;52.108;19.942;2023-01-30T13:18:51;99158.41;;;1.41;85.62
60920;BME280;59039;52.108;19.942;2023-01-30T13:24:30;99155.00;;;1.39;85.56
60920;BME280;59039;52.108;19.942;2023-01-30T13:27:05;99153.21;;;1.39;85.80
60920;BME280;59039;52.108;19.942;2023-01-30T13:29:51;99149.50;;;1.41;85.55
60920;BME280;59039;52.108;19.942;2023-01-30T13:33:35;99151.63;;;1.41;85.69
60920;BME280;59039;52.108;19.942;2023-01-30T13:38:23;99150.22;;;1.43;85.65
60920;BME280;59039;52.108;19.942;2023-01-30T13:40:55;99143.35;;;1.44;85.68
60920;BME280;59039;52.108;19.942;2023-01-30T13:45:51;99144.94;;;1.44;85.65
60920;BME280;59039;52.108;19.942;2023-01-30T13:56:45;99144.17;;;1.45;85.83
60920;BME280;59039;52.108;19.942;2023-01-30T14:02:20;99142.84;;;1.46;85.84
60920;BME280;59039;52.108;19.942;2023-01-30T14:04:48;99146.56;;;1.46;85.84
60920;BME280;59039;52.108;19.942;2023-01-30T14:07:14;99145.29;;;1.46;85.83
60920;BME280;59039;52.108;19.942;2023-01-30T14:10:02;99147.86;;;1.48;85.88
60920;BME280;59039;52.108;19.942;2023-01-30T14:12:50;99145.64;;;1.49;85.87
60920;BME280;59039;52.108;19.942;2023-01-30T14:15:36;99146.66;;;1.49;86.07
60920;BME280;59039;52.108;19.942;2023-01-30T14:21:20;99145.71;;;1.54;86.11
60920;BME280;59039;52.108;19.942;2023-01-30T14:26:59;99141.23;;;1.56;86.03
60920;BME280;59039;52.108;19.942;2023-01-30T14:38:13;99134.95;;;1.61;86.02
60920;BME280;59039;52.108;19.942;2023-01-30T14:40:45;99135.05;;;1.62;86.12
60920;BME280;59039;52.108;19.942;2023-01-30T14:56:51;99118.05;;;1.69;85.94
60920;BME280;59039;52.108;19.942;2023-01-30T14:59:40;99121.67;;;1.68;86.03
60920;BME280;59039;52.108;19.942;2023-01-30T15:05:03;99123.73;;;1.72;85.86
60920;BME280;59039;52.108;19.942;2023-01-30T15:07:49;99136.43;;;1.71;85.77
60920;BME280;59039;52.108;19.942;2023-01-30T15:22:30;99151.20;;;1.67;85.40
60920;BME280;59039;52.108;19.942;2023-01-30T15:25:25;99147.91;;;1.66;85.25
60920;BME280;59039;52.108;19.942;2023-01-30T15:28:01;99148.40;;;1.66;85.46
60920;BME280;59039;52.108;19.942;2023-01-30T15:30:46;99146.36;;;1.68;85.43
60920;BME280;59039;52.108;19.942;2023-01-30T15:33:17;99149.86;;;1.69;85.56
60920;BME280;59039;52.108;19.942;2023-01-30T15:35:43;99149.17;;;1.70;85.73
60920;BME280;59039;52.108;19.942;2023-01-30T15:38:27;99156.30;;;1.73;85.85
60920;BME280;59039;52.108;19.942;2023-01-30T15:40:55;99159.39;;;1.76;85.89
60920;BME280;59039;52.108;19.942;2023-01-30T15:49:00;99155.08;;;1.83;85.85
60920;BME280;59039;52.108;19.942;2023-01-30T15:54:21;99164.16;;;1.87;85.96
60920;BME280;59039;52.108;19.942;2023-01-30T15:57:10;99166.70;;;1.89;85.88
60920;BME280;59039;52.108;19.942;2023-01-30T15:59:38;99171.05;;;1.91;85.88
60920;BME280;59039;52.108;19.942;2023-01-30T16:02:35;99163.79;;;1.92;85.79
60920;BME280;59039;52.108;19.942;2023-01-30T16:05:30;99159.09;;;1.93;85.93
60920;BME280;59039;52.108;19.942;2023-01-30T16:10:43;99178.05;;;1.96;85.95
60920;BME280;59039;52.108;19.942;2023-01-30T16:13:11;99179.96;;;1.99;85.89
60920;BME280;59039;52.108;19.942;2023-01-30T16:15:57;99179.95;;;2.01;85.85
60920;BME280;59039;52.108;19.942;2023-01-30T16:21:09;99169.98;;;2.03;85.88
60920;BME280;59039;52.108;19.942;2023-01-30T16:29:26;99166.02;;;2.01;85.45
60920;BME280;59039;52.108;19.942;2023-01-30T16:31:53;99169.90;;;1.98;85.39
60920;BME280;59039;52.108;19.942;2023-01-30T16:34:43;99165.84;;;1.95;85.21
60920;BME280;59039;52.108;19.942;2023-01-30T16:39:43;99166.59;;;1.88;85.06
60920;BME280;59039;52.108;19.942;2023-01-30T16:42:29;99169.38;;;1.85;85.12
60920;BME280;59039;52.108;19.942;2023-01-30T16:50:43;99175.09;;;1.79;85.21
60920;BME280;59039;52.108;19.942;2023-01-30T16:53:13;99176.49;;;1.79;85.35
60920;BME280;59039;52.108;19.942;2023-01-30T16:55:54;99172.25;;;1.80;85.53
60920;BME280;59039;52.108;19.942;2023-01-30T16:58:28;99172.69;;;1.82;85.53
60920;BME280;59039;52.108;19.942;2023-01-30T17:00:58;99176.73;;;1.82;85.61
60920;BME280;59039;52.108;19.942;2023-01-30T17:03:28;99181.22;;;1.84;85.77
60920;BME280;59039;52.108;19.942;2023-01-30T17:05:57;99183.67;;;1.89;85.72
60920;BME280;59039;52.108;19.942;2023-01-30T17:11:07;99184.14;;;1.94;85.97
60920;BME280;59039;52.108;19.942;2023-01-30T17:16:24;99185.02;;;1.98;85.74
60920;BME280;59039;52.108;19.942;2023-01-30T17:18:52;99180.04;;;2.00;85.56
60920;BME280;59039;52.108;19.942;2023-01-30T17:21:22;99178.05;;;2.01;85.53
60920;BME280;59039;52.108;19.942;2023-01-30T17:23:55;99183.33;;;2.01;85.48
60920;BME280;59039;52.108;19.942;2023-01-30T17:26:22;99188.84;;;2.02;85.73